sensor_id;sensor_type;location;lat;lon;timestamp;P1;durP1;ratioP1;P2;durP2;ratioP2
81386;SDS011;70842;50.744;7.114;2023-10-09T00:01:04;14.05;;;10.88;;
81386;SDS011;70842;50.744;7.114;2023-10-09T00:03:40;12.95;;;10.65;;
81386;SDS011;70842;50.744;7.114;2023-10-09T00:06:07;12.35;;;11.05;;
81386;SDS011;70842;50.744;7.114;2023-10-09T00:08:34;12.40;;;10.93;;
81386;SDS011;70842;50.744;7.114;2023-10-09T00:11:03;12.25;;;9.30;;
81386;SDS011;70842;50.744;7.114;2023-10-09T00:13:46;16.95;;;11.13;;
81386;SDS011;70842;50.744;7.114;2023-10-09T00:16:24;12.65;;;8.68;;
81386;SDS011;70842;50.744;7.114;2023-10-09T00:19:09;11.93;;;8.73;;
81386;SDS011;70842;50.744;7.114;2023-10-09T00:21:47;13.00;;;10.98;;
81386;SDS011;70842;50.744;7.114;2023-10-09T00:24:14;13.13;;;11.38;;
81386;SDS011;70842;50.744;7.114;2023-10-09T00:26:51;14.60;;;12.45;;
81386;SDS011;70842;50.744;7.114;2023-10-09T00:29:18;13.15;;;10.73;;
81386;SDS011;70842;50.744;7.114;2023-10-09T00:31:49;14.25;;;10.95;;
81386;SDS011;70842;50.744;7.114;2023-10-09T00:34:17;13.52;;;12.15;;
81386;SDS011;70842;50.744;7.114;2023-10-09T00:36:48;12.52;;;11.32;;
81386;SDS011;70842;50.744;7.114;2023-10-09T00:39:18;15.15;;;11.88;;
81386;SDS011;70842;50.744;7.114;2023-10-09T00:42:02;12.85;;;11.07;;
81386;SDS011;70842;50.744;7.114;2023-10-09T00:44:32;12.80;;;11.27;;
81386;SDS011;70842;50.744;7.114;2023-10-09T00:47:09;13.35;;;12.02;;
81386;SDS011;70842;50.744;7.114;2023-10-09T00:49:54;15.50;;;11.20;;
81386;SDS011;70842;50.744;7.114;2023-10-09T00:52:30;11.25;;;9.50;;
81386;SDS011;70842;50.744;7.114;2023-10-09T00:55:06;12.18;;;9.90;;
81386;SDS011;70842;50.744;7.114;2023-10-09T00:57:44;12.90;;;9.63;;
81386;SDS011;70842;50.744;7.114;2023-10-09T01:00:26;13.82;;;9.65;;
81386;SDS011;70842;50.744;7.114;2023-10-09T01:03:12;14.77;;;10.35;;
81386;SDS011;70842;50.744;7.114;2023-10-09T01:05:47;13.27;;;11.95;;
81386;SDS011;70842;50.744;7.114;2023-10-09T01:08:38;12.10;;;9.65;;
81386;SDS011;70842;50.744;7.114;2023-10-09T01:11:06;11.75;;;10.30;;
81386;SDS011;70842;50.744;7.114;2023-10-09T01:13:36;14.27;;;9.65;;
81386;SDS011;70842;50.744;7.114;2023-10-09T01:16:12;10.88;;;7.80;;
81386;SDS011;70842;50.744;7.114;2023-10-09T01:18:49;10.93;;;8.88;;
81386;SDS011;70842;50.744;7.114;2023-10-09T01:21:17;12.68;;;9.93;;
81386;SDS011;70842;50.744;7.114;2023-10-09T01:23:49;11.20;;;9.77;;
81386;SDS011;70842;50.744;7.114;2023-10-09T01:26:25;12.93;;;10.55;;
81386;SDS011;70842;50.744;7.114;2023-10-09T01:28:52;14.13;;;10.20;;
81386;SDS011;70842;50.744;7.114;2023-10-09T01:31:24;12.18;;;8.82;;
81386;SDS011;70842;50.744;7.114;2023-10-09T01:33:53;10.10;;;7.65;;
81386;SDS011;70842;50.744;7.114;2023-10-09T01:36:20;16.05;;;7.97;;
81386;SDS011;70842;50.744;7.114;2023-10-09T01:38:58;13.23;;;9.88;;
81386;SDS011;70842;50.744;7.114;2023-10-09T01:41:26;14.60;;;11.93;;
81386;SDS011;70842;50.744;7.114;2023-10-09T01:43:53;13.10;;;10.85;;
81386;SDS011;70842;50.744;7.114;2023-10-09T01:46:26;13.85;;;11.18;;
81386;SDS011;70842;50.744;7.114;2023-10-09T01:48:53;12.35;;;11.15;;
81386;SDS011;70842;50.744;7.114;2023-10-09T01:51:20;10.13;;;7.45;;
81386;SDS011;70842;50.744;7.114;2023-10-09T01:53:47;13.98;;;12.68;;
81386;SDS011;70842;50.744;7.114;2023-10-09T01:56:23;10.68;;;8.93;;
81386;SDS011;70842;50.744;7.114;2023-10-09T01:58:49;12.40;;;11.18;;
81386;SDS011;70842;50.744;7.114;2023-10-09T02:01:16;10.27;;;9.27;;
81386;SDS011;70842;50.744;7.114;2023-10-09T02:03:43;15.85;;;14.55;;
81386;SDS011;70842;50.744;7.114;2023-10-09T02:06:09;13.77;;;10.05;;
81386;SDS011;70842;50.744;7.114;2023-10-09T02:08:56;14.75;;;11.77;;
81386;SDS011;70842;50.744;7.114;2023-10-09T02:11:22;9.20;;;6.85;;
81386;SDS011;70842;50.744;7.114;2023-10-09T02:14:09;13.90;;;10.90;;
81386;SDS011;70842;50.744;7.114;2023-10-09T02:16:48;12.32;;;9.55;;
81386;SDS011;70842;50.744;7.114;2023-10-09T02:19:33;14.63;;;12.57;;
81386;SDS011;70842;50.744;7.114;2023-10-09T02:22:01;13.38;;;11.98;;
81386;SDS011;70842;50.744;7.114;2023-10-09T02:24:41;13.30;;;11.90;;
81386;SDS011;70842;50.744;7.114;2023-10-09T02:27:15;13.35;;;11.85;;
81386;SDS011;70842;50.744;7.114;2023-10-09T02:30:00;12.30;;;10.50;;
81386;SDS011;70842;50.744;7.114;2023-10-09T02:32:35;12.32;;;11.07;;
81386;SDS011;70842;50.744;7.114;2023-10-09T02:35:02;13.50;;;11.57;;
81386;SDS011;70842;50.744;7.114;2023-10-09T02:37:36;11.95;;;9.90;;
81386;SDS011;70842;50.744;7.114;2023-10-09T02:40:04;11.23;;;9.75;;
81386;SDS011;70842;50.744;7.114;2023-10-09T02:42:34;12.02;;;9.90;;
81386;SDS011;70842;50.744;7.114;2023-10-09T02:45:01;12.13;;;9.27;;
81386;SDS011;70842;50.744;7.114;2023-10-09T02:47:30;12.35;;;11.07;;
81386;SDS011;70842;50.744;7.114;2023-10-09T02:50:04;12.15;;;10.95;;
81386;SDS011;70842;50.744;7.114;2023-10-09T02:52:49;12.43;;;10.55;;
81386;SDS011;70842;50.744;7.114;2023-10-09T02:55:25;12.00;;;8.88;;
81386;SDS011;70842;50.744;7.114;2023-10-09T02:57:54;9.60;;;8.40;;
81386;SDS011;70842;50.744;7.114;2023-10-09T03:00:37;10.73;;;8.68;;
81386;SDS011;70842;50.744;7.114;2023-10-09T03:03:03;12.18;;;10.93;;
81386;SDS011;70842;50.744;7.114;2023-10-09T03:05:34;11.95;;;9.05;;
81386;SDS011;70842;50.744;7.114;2023-10-09T03:08:00;11.15;;;8.85;;
81386;SDS011;70842;50.744;7.114;2023-10-09T03:10:28;12.52;;;9.40;;
81386;SDS011;70842;50.744;7.114;2023-10-09T03:12:55;10.68;;;9.57;;
81386;SDS011;70842;50.744;7.114;2023-10-09T03:15:22;11.77;;;9.77;;
81386;SDS011;70842;50.744;7.114;2023-10-09T03:17:49;12.07;;;10.85;;
81386;SDS011;70842;50.744;7.114;2023-10-09T03:20:18;12.50;;;7.63;;
81386;SDS011;70842;50.744;7.114;2023-10-09T03:22:44;12.75;;;10.27;;
81386;SDS011;70842;50.744;7.114;2023-10-09T03:25:11;10.73;;;7.57;;
81386;SDS011;70842;50.744;7.114;2023-10-09T03:27:39;14.02;;;11.23;;
81386;SDS011;70842;50.744;7.114;2023-10-09T03:30:16;12.27;;;10.90;;
81386;SDS011;70842;50.744;7.114;2023-10-09T03:32:49;11.60;;;10.10;;
81386;SDS011;70842;50.744;7.114;2023-10-09T03:35:21;13.65;;;10.30;;
81386;SDS011;70842;50.744;7.114;2023-10-09T03:37:52;13.68;;;12.27;;
81386;SDS011;70842;50.744;7.114;2023-10-09T03:40:43;14.15;;;10.48;;
81386;SDS011;70842;50.744;7.114;2023-10-09T03:43:10;12.75;;;10.98;;
81386;SDS011;70842;50.744;7.114;2023-10-09T03:45:37;14.02;;;11.43;;
81386;SDS011;70842;50.744;7.114;2023-10-09T03:48:05;13.98;;;10.75;;
81386;SDS011;70842;50.744;7.114;2023-10-09T03:50:49;11.77;;;10.50;;
81386;SDS011;70842;50.744;7.114;2023-10-09T03:53:21;12.80;;;10.23;;
81386;SDS011;70842;50.744;7.114;2023-10-09T03:55:48;12.52;;;11.10;;
81386;SDS011;70842;50.744;7.114;2023-10-09T03:58:15;11.38;;;10.27;;
81386;SDS011;70842;50.744;7.114;2023-10-09T04:00:45;13.30;;;12.07;;
81386;SDS011;70842;50.744;7.114;2023-10-09T04:03:13;12.57;;;8.70;;
81386;SDS011;70842;50.744;7.114;2023-10-09T04:05:41;10.48;;;9.35;;
81386;SDS011;70842;50.744;7.114;2023-10-09T04:08:09;14.52;;;9.98;;
81386;SDS011;70842;50.744;7.114;2023-10-09T04:10:42;12.25;;;9.50;;
81386;SDS011;70842;50.744;7.114;2023-10-09T04:13:23;12.63;;;11.25;;
81386;SDS011;70842;50.744;7.114;2023-10-09T04:15:50;11.00;;;8.82;;
81386;SDS011;70842;50.744;7.114;2023-10-09T04:18:19;11.10;;;9.95;;
81386;SDS011;70842;50.744;7.114;2023-10-09T04:20:46;11.52;;;10.43;;
81386;SDS011;70842;50.744;7.114;2023-10-09T04:23:32;13.85;;;9.85;;
81386;SDS011;70842;50.744;7.114;2023-10-09T04:26:02;13.88;;;11.43;;
81386;SDS011;70842;50.744;7.114;2023-10-09T04:28:37;12.43;;;11.15;;
81386;SDS011;70842;50.744;7.114;2023-10-09T04:31:03;12.10;;;9.40;;
81386;SDS011;70842;50.744;7.114;2023-10-09T04:33:32;13.02;;;10.57;;
81386;SDS011;70842;50.744;7.114;2023-10-09T04:36:05;15.88;;;11.23;;
81386;SDS011;70842;50.744;7.114;2023-10-09T04:38:52;10.52;;;9.48;;
81386;SDS011;70842;50.744;7.114;2023-10-09T04:41:42;12.20;;;11.00;;
81386;SDS011;70842;50.744;7.114;2023-10-09T04:44:09;14.25;;;12.85;;
81386;SDS011;70842;50.744;7.114;2023-10-09T04:47:02;12.63;;;11.20;;
81386;SDS011;70842;50.744;7.114;2023-10-09T04:49:40;13.13;;;11.75;;
81386;SDS011;70842;50.744;7.114;2023-10-09T04:52:22;11.35;;;9.57;;
81386;SDS011;70842;50.744;7.114;2023-10-09T04:54:55;9.98;;;7.05;;
81386;SDS011;70842;50.744;7.114;2023-10-09T05:00:10;14.15;;;9.05;;
81386;SDS011;70842;50.744;7.114;2023-10-09T05:03:01;13.30;;;11.55;;
81386;SDS011;70842;50.744;7.114;2023-10-09T05:05:58;12.93;;;10.30;;
81386;SDS011;70842;50.744;7.114;2023-10-09T05:08:25;15.25;;;11.38;;
81386;SDS011;70842;50.744;7.114;2023-10-09T05:10:56;12.73;;;10.60;;
81386;SDS011;70842;50.744;7.114;2023-10-09T05:16:23;12.57;;;11.02;;
81386;SDS011;70842;50.744;7.114;2023-10-09T05:18:53;11.18;;;10.05;;
81386;SDS011;70842;50.744;7.114;2023-10-09T05:21:25;12.70;;;9.75;;
81386;SDS011;70842;50.744;7.114;2023-10-09T05:23:57;12.00;;;9.63;;
81386;SDS011;70842;50.744;7.114;2023-10-09T05:26:43;11.77;;;10.18;;
81386;SDS011;70842;50.744;7.114;2023-10-09T05:32:04;13.98;;;12.02;;
81386;SDS011;70842;50.744;7.114;2023-10-09T05:34:51;13.35;;;9.95;;
81386;SDS011;70842;50.744;7.114;2023-10-09T05:37:27;12.00;;;10.80;;
81386;SDS011;70842;50.744;7.114;2023-10-09T05:40:03;16.85;;;15.15;;
81386;SDS011;70842;50.744;7.114;2023-10-09T05:42:43;16.90;;;13.35;;
81386;SDS011;70842;50.744;7.114;2023-10-09T05:45:11;13.27;;;10.60;;
81386;SDS011;70842;50.744;7.114;2023-10-09T05:47:58;11.90;;;9.30;;
81386;SDS011;70842;50.744;7.114;2023-10-09T05:50:31;14.20;;;10.52;;
81386;SDS011;70842;50.744;7.114;2023-10-09T05:53:01;12.77;;;10.57;;
81386;SDS011;70842;50.744;7.114;2023-10-09T05:55:29;14.90;;;10.23;;
81386;SDS011;70842;50.744;7.114;2023-10-09T05:58:14;16.10;;;14.77;;
81386;SDS011;70842;50.744;7.114;2023-10-09T06:00:59;13.60;;;12.02;;
81386;SDS011;70842;50.744;7.114;2023-10-09T06:03:31;12.77;;;11.55;;
81386;SDS011;70842;50.744;7.114;2023-10-09T06:06:36;11.98;;;9.75;;
81386;SDS011;70842;50.744;7.114;2023-10-09T06:09:11;13.73;;;11.68;;
81386;SDS011;70842;50.744;7.114;2023-10-09T06:11:43;12.43;;;10.02;;
81386;SDS011;70842;50.744;7.114;2023-10-09T06:14:21;11.23;;;10.13;;
81386;SDS011;70842;50.744;7.114;2023-10-09T06:16:52;12.70;;;10.35;;
81386;SDS011;70842;50.744;7.114;2023-10-09T06:19:28;11.90;;;10.15;;
81386;SDS011;70842;50.744;7.114;2023-10-09T06:21:55;14.70;;;13.18;;
81386;SDS011;70842;50.744;7.114;2023-10-09T06:24:39;12.30;;;9.93;;
81386;SDS011;70842;50.744;7.114;2023-10-09T06:29:36;11.80;;;7.80;;
81386;SDS011;70842;50.744;7.114;2023-10-09T06:32:03;11.30;;;9.95;;
81386;SDS011;70842;50.744;7.114;2023-10-09T06:34:56;12.05;;;10.65;;
81386;SDS011;70842;50.744;7.114;2023-10-09T06:37:42;9.70;;;6.95;;
81386;SDS011;70842;50.744;7.114;2023-10-09T06:40:28;11.90;;;10.68;;
81386;SDS011;70842;50.744;7.114;2023-10-09T06:43:03;11.43;;;7.85;;
81386;SDS011;70842;50.744;7.114;2023-10-09T06:45:51;11.23;;;9.23;;
81386;SDS011;70842;50.744;7.114;2023-10-09T06:48:24;11.55;;;10.30;;
81386;SDS011;70842;50.744;7.114;2023-10-09T06:51:04;11.80;;;10.40;;
81386;SDS011;70842;50.744;7.114;2023-10-09T06:53:39;11.80;;;10.60;;
81386;SDS011;70842;50.744;7.114;2023-10-09T06:56:27;10.85;;;8.82;;
81386;SDS011;70842;50.744;7.114;2023-10-09T06:58:55;13.00;;;11.88;;
81386;SDS011;70842;50.744;7.114;2023-10-09T07:02:01;11.02;;;9.98;;
81386;SDS011;70842;50.744;7.114;2023-10-09T07:04:46;12.82;;;9.63;;
81386;SDS011;70842;50.744;7.114;2023-10-09T07:07:12;10.40;;;7.22;;
81386;SDS011;70842;50.744;7.114;2023-10-09T07:09:42;8.70;;;7.20;;
81386;SDS011;70842;50.744;7.114;2023-10-09T07:12:09;11.77;;;9.90;;
81386;SDS011;70842;50.744;7.114;2023-10-09T07:14:40;10.35;;;8.93;;
81386;SDS011;70842;50.744;7.114;2023-10-09T07:17:07;12.90;;;10.05;;
81386;SDS011;70842;50.744;7.114;2023-10-09T07:19:53;13.20;;;11.88;;
81386;SDS011;70842;50.744;7.114;2023-10-09T07:22:20;10.43;;;9.30;;
81386;SDS011;70842;50.744;7.114;2023-10-09T07:24:56;12.10;;;10.82;;
81386;SDS011;70842;50.744;7.114;2023-10-09T07:27:23;10.05;;;8.77;;
81386;SDS011;70842;50.744;7.114;2023-10-09T07:30:09;11.13;;;9.55;;
81386;SDS011;70842;50.744;7.114;2023-10-09T07:32:59;10.75;;;9.65;;
81386;SDS011;70842;50.744;7.114;2023-10-09T07:35:50;10.57;;;8.35;;
81386;SDS011;70842;50.744;7.114;2023-10-09T07:38:20;10.55;;;9.38;;
81386;SDS011;70842;50.744;7.114;2023-10-09T07:40:55;12.73;;;9.80;;
81386;SDS011;70842;50.744;7.114;2023-10-09T07:43:34;11.68;;;10.55;;
81386;SDS011;70842;50.744;7.114;2023-10-09T07:46:06;11.35;;;10.13;;
81386;SDS011;70842;50.744;7.114;2023-10-09T07:49:08;12.63;;;9.82;;
81386;SDS011;70842;50.744;7.114;2023-10-09T07:51:39;10.07;;;9.07;;
81386;SDS011;70842;50.744;7.114;2023-10-09T07:54:10;9.65;;;7.40;;
81386;SDS011;70842;50.744;7.114;2023-10-09T07:56:41;11.32;;;9.98;;
81386;SDS011;70842;50.744;7.114;2023-10-09T07:59:12;10.85;;;9.55;;
81386;SDS011;70842;50.744;7.114;2023-10-09T08:01:40;14.02;;;10.70;;
81386;SDS011;70842;50.744;7.114;2023-10-09T08:04:21;11.65;;;10.57;;
81386;SDS011;70842;50.744;7.114;2023-10-09T08:07:05;12.65;;;11.40;;
81386;SDS011;70842;50.744;7.114;2023-10-09T08:10:11;11.48;;;10.27;;
81386;SDS011;70842;50.744;7.114;2023-10-09T08:12:44;12.45;;;10.90;;
81386;SDS011;70842;50.744;7.114;2023-10-09T08:15:11;10.63;;;9.35;;
81386;SDS011;70842;50.744;7.114;2023-10-09T08:17:48;23.67;;;14.23;;
81386;SDS011;70842;50.744;7.114;2023-10-09T08:20:30;13.30;;;10.07;;
81386;SDS011;70842;50.744;7.114;2023-10-09T08:23:17;10.88;;;9.88;;
81386;SDS011;70842;50.744;7.114;2023-10-09T08:26:02;11.93;;;10.82;;
81386;SDS011;70842;50.744;7.114;2023-10-09T08:28:54;10.57;;;9.38;;
81386;SDS011;70842;50.744;7.114;2023-10-09T08:31:40;11.07;;;10.15;;
81386;SDS011;70842;50.744;7.114;2023-10-09T08:34:13;10.35;;;6.65;;
81386;SDS011;70842;50.744;7.114;2023-10-09T08:36:55;11.02;;;9.85;;
81386;SDS011;70842;50.744;7.114;2023-10-09T08:39:22;11.48;;;10.05;;
81386;SDS011;70842;50.744;7.114;2023-10-09T08:41:52;11.00;;;9.85;;
81386;SDS011;70842;50.744;7.114;2023-10-09T08:44:20;11.15;;;10.05;;
81386;SDS011;70842;50.744;7.114;2023-10-09T08:46:49;9.88;;;8.88;;
81386;SDS011;70842;50.744;7.114;2023-10-09T08:49:16;10.02;;;7.55;;
81386;SDS011;70842;50.744;7.114;2023-10-09T08:51:44;10.60;;;8.43;;
81386;SDS011;70842;50.744;7.114;2023-10-09T08:54:12;11.38;;;9.57;;
81386;SDS011;70842;50.744;7.114;2023-10-09T08:56:41;11.30;;;10.20;;
81386;SDS011;70842;50.744;7.114;2023-10-09T08:59:17;13.98;;;12.65;;
81386;SDS011;70842;50.744;7.114;2023-10-09T09:01:45;11.25;;;9.68;;
81386;SDS011;70842;50.744;7.114;2023-10-09T09:10:00;15.35;;;11.27;;
81386;SDS011;70842;50.744;7.114;2023-10-09T09:12:47;11.32;;;9.13;;
81386;SDS011;70842;50.744;7.114;2023-10-09T09:15:27;9.40;;;6.93;;
81386;SDS011;70842;50.744;7.114;2023-10-09T09:18:07;13.23;;;9.95;;
81386;SDS011;70842;50.744;7.114;2023-10-09T09:20:38;10.85;;;9.65;;
81386;SDS011;70842;50.744;7.114;2023-10-09T09:23:09;10.57;;;8.80;;
81386;SDS011;70842;50.744;7.114;2023-10-09T09:25:42;9.50;;;8.02;;
81386;SDS011;70842;50.744;7.114;2023-10-09T09:28:26;10.40;;;8.77;;
81386;SDS011;70842;50.744;7.114;2023-10-09T09:31:06;10.10;;;6.72;;
81386;SDS011;70842;50.744;7.114;2023-10-09T09:33:40;11.68;;;9.57;;
81386;SDS011;70842;50.744;7.114;2023-10-09T09:36:08;10.45;;;9.45;;
81386;SDS011;70842;50.744;7.114;2023-10-09T09:38:38;11.50;;;10.38;;
81386;SDS011;70842;50.744;7.114;2023-10-09T09:41:14;13.23;;;9.98;;
81386;SDS011;70842;50.744;7.114;2023-10-09T09:43:52;11.48;;;10.38;;
81386;SDS011;70842;50.744;7.114;2023-10-09T09:46:22;12.60;;;9.40;;
81386;SDS011;70842;50.744;7.114;2023-10-09T09:49:02;9.00;;;8.07;;
81386;SDS011;70842;50.744;7.114;2023-10-09T09:51:43;13.40;;;9.82;;
81386;SDS011;70842;50.744;7.114;2023-10-09T09:54:13;8.85;;;6.97;;
81386;SDS011;70842;50.744;7.114;2023-10-09T09:56:45;9.68;;;8.48;;
81386;SDS011;70842;50.744;7.114;2023-10-09T09:59:18;9.55;;;8.57;;
81386;SDS011;70842;50.744;7.114;2023-10-09T10:01:49;8.50;;;6.47;;
81386;SDS011;70842;50.744;7.114;2023-10-09T10:04:32;8.95;;;7.90;;
81386;SDS011;70842;50.744;7.114;2023-10-09T10:07:03;9.07;;;7.25;;
81386;SDS011;70842;50.744;7.114;2023-10-09T10:09:36;11.07;;;8.40;;
81386;SDS011;70842;50.744;7.114;2023-10-09T10:12:08;11.60;;;8.50;;
81386;SDS011;70842;50.744;7.114;2023-10-09T10:17:19;8.77;;;6.97;;
81386;SDS011;70842;50.744;7.114;2023-10-09T10:22:27;8.23;;;5.35;;
81386;SDS011;70842;50.744;7.114;2023-10-09T10:24:56;8.07;;;6.25;;
81386;SDS011;70842;50.744;7.114;2023-10-09T10:27:35;7.97;;;5.32;;
81386;SDS011;70842;50.744;7.114;2023-10-09T10:35:24;9.25;;;7.47;;
81386;SDS011;70842;50.744;7.114;2023-10-09T10:38:24;8.68;;;5.45;;
81386;SDS011;70842;50.744;7.114;2023-10-09T10:41:10;7.55;;;5.40;;
81386;SDS011;70842;50.744;7.114;2023-10-09T10:43:43;6.60;;;5.88;;
81386;SDS011;70842;50.744;7.114;2023-10-09T10:46:14;7.47;;;6.47;;
81386;SDS011;70842;50.744;7.114;2023-10-09T10:48:51;10.77;;;5.95;;
81386;SDS011;70842;50.744;7.114;2023-10-09T10:51:35;7.47;;;3.95;;
81386;SDS011;70842;50.744;7.114;2023-10-09T10:54:04;9.02;;;6.45;;
81386;SDS011;70842;50.744;7.114;2023-10-09T10:57:18;7.35;;;5.43;;
81386;SDS011;70842;50.744;7.114;2023-10-09T11:00:17;9.40;;;6.78;;
81386;SDS011;70842;50.744;7.114;2023-10-09T11:03:02;32.20;;;17.42;;
81386;SDS011;70842;50.744;7.114;2023-10-09T11:05:42;10.07;;;5.80;;
81386;SDS011;70842;50.744;7.114;2023-10-09T11:08:17;7.72;;;4.72;;
81386;SDS011;70842;50.744;7.114;2023-10-09T11:10:49;8.30;;;4.93;;
81386;SDS011;70842;50.744;7.114;2023-10-09T11:13:23;9.35;;;4.90;;
81386;SDS011;70842;50.744;7.114;2023-10-09T11:15:59;8.85;;;5.93;;
81386;SDS011;70842;50.744;7.114;2023-10-09T11:18:41;9.68;;;6.28;;
81386;SDS011;70842;50.744;7.114;2023-10-09T11:21:14;8.55;;;4.55;;
81386;SDS011;70842;50.744;7.114;2023-10-09T11:23:41;8.00;;;5.03;;
81386;SDS011;70842;50.744;7.114;2023-10-09T11:26:29;7.00;;;6.30;;
81386;SDS011;70842;50.744;7.114;2023-10-09T11:29:13;9.15;;;5.43;;
81386;SDS011;70842;50.744;7.114;2023-10-09T11:31:59;9.00;;;5.28;;
81386;SDS011;70842;50.744;7.114;2023-10-09T11:34:31;10.77;;;5.95;;
81386;SDS011;70842;50.744;7.114;2023-10-09T11:36:59;7.63;;;5.72;;
81386;SDS011;70842;50.744;7.114;2023-10-09T11:39:57;9.00;;;6.07;;
81386;SDS011;70842;50.744;7.114;2023-10-09T11:42:26;8.98;;;6.80;;
81386;SDS011;70842;50.744;7.114;2023-10-09T11:47:56;7.72;;;5.82;;
81386;SDS011;70842;50.744;7.114;2023-10-09T11:50:40;9.40;;;6.85;;
81386;SDS011;70842;50.744;7.114;2023-10-09T11:53:10;7.60;;;6.78;;
81386;SDS011;70842;50.744;7.114;2023-10-09T11:56:00;8.88;;;6.35;;
81386;SDS011;70842;50.744;7.114;2023-10-09T11:58:27;7.43;;;5.00;;
81386;SDS011;70842;50.744;7.114;2023-10-09T12:01:09;9.48;;;5.78;;
81386;SDS011;70842;50.744;7.114;2023-10-09T12:03:42;8.93;;;5.78;;
81386;SDS011;70842;50.744;7.114;2023-10-09T12:06:10;7.25;;;6.07;;
81386;SDS011;70842;50.744;7.114;2023-10-09T12:08:38;8.65;;;6.38;;
81386;SDS011;70842;50.744;7.114;2023-10-09T12:13:36;8.52;;;5.28;;
81386;SDS011;70842;50.744;7.114;2023-10-09T12:16:04;7.80;;;6.68;;
81386;SDS011;70842;50.744;7.114;2023-10-09T12:18:37;9.38;;;6.75;;
81386;SDS011;70842;50.744;7.114;2023-10-09T12:21:05;7.70;;;5.93;;
81386;SDS011;70842;50.744;7.114;2023-10-09T12:23:32;8.02;;;4.95;;
81386;SDS011;70842;50.744;7.114;2023-10-09T12:26:02;7.28;;;4.50;;
81386;SDS011;70842;50.744;7.114;2023-10-09T12:28:29;7.80;;;5.07;;
81386;SDS011;70842;50.744;7.114;2023-10-09T12:30:59;7.32;;;6.00;;
81386;SDS011;70842;50.744;7.114;2023-10-09T12:33:28;9.38;;;4.60;;
81386;SDS011;70842;50.744;7.114;2023-10-09T12:35:56;10.10;;;6.60;;
81386;SDS011;70842;50.744;7.114;2023-10-09T12:38:27;8.25;;;4.97;;
81386;SDS011;70842;50.744;7.114;2023-10-09T12:41:01;8.80;;;5.95;;
81386;SDS011;70842;50.744;7.114;2023-10-09T12:43:34;7.78;;;5.60;;
81386;SDS011;70842;50.744;7.114;2023-10-09T12:46:05;9.48;;;5.47;;
81386;SDS011;70842;50.744;7.114;2023-10-09T12:48:32;6.70;;;4.85;;
81386;SDS011;70842;50.744;7.114;2023-10-09T12:50:58;8.00;;;4.38;;
81386;SDS011;70842;50.744;7.114;2023-10-09T12:53:32;8.10;;;5.10;;
81386;SDS011;70842;50.744;7.114;2023-10-09T12:55:59;6.95;;;5.88;;
81386;SDS011;70842;50.744;7.114;2023-10-09T12:58:26;7.90;;;5.78;;
81386;SDS011;70842;50.744;7.114;2023-10-09T13:00:53;8.98;;;5.78;;
81386;SDS011;70842;50.744;7.114;2023-10-09T13:03:20;8.38;;;5.50;;
81386;SDS011;70842;50.744;7.114;2023-10-09T13:05:49;11.30;;;6.15;;
81386;SDS011;70842;50.744;7.114;2023-10-09T13:08:23;10.45;;;5.95;;
81386;SDS011;70842;50.744;7.114;2023-10-09T13:11:01;9.98;;;5.68;;
81386;SDS011;70842;50.744;7.114;2023-10-09T13:13:37;12.10;;;6.35;;
81386;SDS011;70842;50.744;7.114;2023-10-09T13:16:08;9.00;;;5.55;;
81386;SDS011;70842;50.744;7.114;2023-10-09T13:18:40;9.35;;;5.00;;
81386;SDS011;70842;50.744;7.114;2023-10-09T13:21:13;8.25;;;4.68;;
81386;SDS011;70842;50.744;7.114;2023-10-09T13:23:40;8.30;;;5.28;;
81386;SDS011;70842;50.744;7.114;2023-10-09T13:26:08;9.27;;;6.32;;
81386;SDS011;70842;50.744;7.114;2023-10-09T13:28:59;14.20;;;5.38;;
81386;SDS011;70842;50.744;7.114;2023-10-09T13:31:28;7.47;;;5.10;;
81386;SDS011;70842;50.744;7.114;2023-10-09T13:33:58;6.43;;;5.63;;
81386;SDS011;70842;50.744;7.114;2023-10-09T13:36:29;9.75;;;6.45;;
81386;SDS011;70842;50.744;7.114;2023-10-09T13:38:56;7.97;;;4.82;;
81386;SDS011;70842;50.744;7.114;2023-10-09T13:41:23;8.27;;;5.32;;
81386;SDS011;70842;50.744;7.114;2023-10-09T13:43:55;9.30;;;7.10;;
81386;SDS011;70842;50.744;7.114;2023-10-09T13:46:23;7.65;;;5.53;;
81386;SDS011;70842;50.744;7.114;2023-10-09T13:48:53;9.00;;;8.20;;
81386;SDS011;70842;50.744;7.114;2023-10-09T13:51:20;9.52;;;6.10;;
81386;SDS011;70842;50.744;7.114;2023-10-09T13:53:50;9.48;;;6.00;;
81386;SDS011;70842;50.744;7.114;2023-10-09T13:56:17;7.90;;;5.30;;
81386;SDS011;70842;50.744;7.114;2023-10-09T13:58:45;6.43;;;4.45;;
81386;SDS011;70842;50.744;7.114;2023-10-09T14:01:12;11.23;;;7.22;;
81386;SDS011;70842;50.744;7.114;2023-10-09T14:03:47;10.13;;;5.93;;
81386;SDS011;70842;50.744;7.114;2023-10-09T14:06:16;9.20;;;6.75;;
81386;SDS011;70842;50.744;7.114;2023-10-09T14:08:46;8.45;;;5.45;;
81386;SDS011;70842;50.744;7.114;2023-10-09T14:11:12;9.88;;;6.55;;
81386;SDS011;70842;50.744;7.114;2023-10-09T14:13:40;10.18;;;6.03;;
81386;SDS011;70842;50.744;7.114;2023-10-09T14:16:06;7.47;;;6.28;;
81386;SDS011;70842;50.744;7.114;2023-10-09T14:18:36;8.30;;;5.28;;
81386;SDS011;70842;50.744;7.114;2023-10-09T14:21:02;7.63;;;5.90;;
81386;SDS011;70842;50.744;7.114;2023-10-09T14:23:42;10.23;;;5.90;;
81386;SDS011;70842;50.744;7.114;2023-10-09T14:26:12;9.95;;;6.30;;
81386;SDS011;70842;50.744;7.114;2023-10-09T14:28:39;8.85;;;6.25;;
81386;SDS011;70842;50.744;7.114;2023-10-09T14:31:05;8.65;;;5.82;;
81386;SDS011;70842;50.744;7.114;2023-10-09T14:33:38;9.45;;;6.53;;
81386;SDS011;70842;50.744;7.114;2023-10-09T14:36:06;8.15;;;4.68;;
81386;SDS011;70842;50.744;7.114;2023-10-09T14:38:33;7.88;;;6.03;;
81386;SDS011;70842;50.744;7.114;2023-10-09T14:41:05;8.10;;;6.95;;
81386;SDS011;70842;50.744;7.114;2023-10-09T14:43:33;10.38;;;7.97;;
81386;SDS011;70842;50.744;7.114;2023-10-09T14:46:00;7.88;;;5.07;;
81386;SDS011;70842;50.744;7.114;2023-10-09T14:48:27;8.80;;;5.82;;
81386;SDS011;70842;50.744;7.114;2023-10-09T14:50:54;9.52;;;8.35;;
81386;SDS011;70842;50.744;7.114;2023-10-09T14:53:30;8.85;;;7.45;;
81386;SDS011;70842;50.744;7.114;2023-10-09T14:55:57;9.27;;;5.85;;
81386;SDS011;70842;50.744;7.114;2023-10-09T14:58:23;8.05;;;5.45;;
81386;SDS011;70842;50.744;7.114;2023-10-09T15:00:51;9.20;;;6.50;;
81386;SDS011;70842;50.744;7.114;2023-10-09T15:03:19;8.13;;;5.93;;
81386;SDS011;70842;50.744;7.114;2023-10-09T15:05:46;6.78;;;6.07;;
81386;SDS011;70842;50.744;7.114;2023-10-09T15:08:12;7.32;;;4.40;;
81386;SDS011;70842;50.744;7.114;2023-10-09T15:10:50;8.85;;;6.30;;
81386;SDS011;70842;50.744;7.114;2023-10-09T15:13:22;6.22;;;4.63;;
81386;SDS011;70842;50.744;7.114;2023-10-09T15:15:55;7.38;;;6.13;;
81386;SDS011;70842;50.744;7.114;2023-10-09T15:18:21;7.95;;;5.38;;
81386;SDS011;70842;50.744;7.114;2023-10-09T15:20:49;8.70;;;6.57;;
81386;SDS011;70842;50.744;7.114;2023-10-09T15:23:15;8.23;;;7.43;;
81386;SDS011;70842;50.744;7.114;2023-10-09T15:25:42;9.57;;;5.95;;
81386;SDS011;70842;50.744;7.114;2023-10-09T15:28:11;11.35;;;6.40;;
81386;SDS011;70842;50.744;7.114;2023-10-09T15:30:38;9.63;;;7.80;;
81386;SDS011;70842;50.744;7.114;2023-10-09T15:33:05;9.52;;;6.60;;
81386;SDS011;70842;50.744;7.114;2023-10-09T15:35:31;9.60;;;6.97;;
81386;SDS011;70842;50.744;7.114;2023-10-09T15:38:03;9.30;;;7.15;;
81386;SDS011;70842;50.744;7.114;2023-10-09T15:40:30;6.93;;;5.18;;
81386;SDS011;70842;50.744;7.114;2023-10-09T15:43:00;9.07;;;6.85;;
81386;SDS011;70842;50.744;7.114;2023-10-09T15:45:27;7.68;;;6.03;;
81386;SDS011;70842;50.744;7.114;2023-10-09T15:47:57;9.55;;;7.45;;